EW2351 Cozumel MX current weather conditions

sailwx.info

Wind from 165 at 2 knots gusting 6

Air temperature 8.9° C
Dewpoint 6.3° C

Last reported at 2018-Dec-12 02:00 UTC.
Time now 2018-Dec-12 02:35 UTC

Location: N 20°33' W 086°55'.
View on Google Maps.

See reports from other nearby stations

  
Tides and Currents Weather Stations Pressure Air Temp Water Temp Dewpoint Dewpoint Depression Visibility Wind Speed Wind Dir Waves Ship Positions
date/time (UTC)wind fromknots sea level pressurealtimeterstation pressurevisibilityair tempwater tempwave heightnotes
2018-Dec-12 02:00 165 2 gusting 6 8.9
2018-Dec-12 01:47 218 3 gusting 6 8.9
2018-Dec-12 01:31 197 2 gusting 5 8.9
2018-Dec-12 01:16 196 1 gusting 3 8.9
2018-Dec-12 01:01 171 0 gusting 1 8.9
2018-Dec-12 00:46 197 0 gusting 1 8.9
2018-Dec-12 00:31 196 0 gusting 1 9.4
2018-Dec-12 00:16 174 1 gusting 3 9.4
2018-Dec-12 00:01 184 0 gusting 2 10.0
2018-Dec-11 23:46 220 0 gusting 4 10.6
2018-Dec-11 23:31 155 2 gusting 7 11.1
2018-Dec-11 23:16 180 1 gusting 5 11.7
2018-Dec-11 23:01 191 2 gusting 6 11.7
2018-Dec-11 22:45 199 3 gusting 7 12.2
2018-Dec-11 22:31 195 4 gusting 10 12.2
2018-Dec-11 22:15 186 4 gusting 9 12.8
2018-Dec-11 22:01 218 6 gusting 13 12.8
2018-Dec-11 21:45 242 6 gusting 11 13.3
2018-Dec-11 21:31 169 3 gusting 9 13.9
2018-Dec-11 21:15 218 6 gusting 14 13.9
2018-Dec-11 21:00 188 8 gusting 14 14.4
2018-Dec-11 20:46 181 6 gusting 13 15.0
2018-Dec-11 20:30 216 8 gusting 13 14.4
2018-Dec-11 20:15 182 6 gusting 10 13.9
2018-Dec-11 20:00 213 6 gusting 12 13.9
2018-Dec-11 19:45 209 6 gusting 11 13.9
2018-Dec-11 19:30 203 6 gusting 11 13.9
2018-Dec-11 19:15 193 6 gusting 13 13.3
2018-Dec-11 19:00 252 6 gusting 14 13.3
2018-Dec-11 18:45 205 7 gusting 13 13.9
2018-Dec-11 18:30 205 6 gusting 13 13.3
2018-Dec-11 18:16 188 6 gusting 12 13.3
2018-Dec-11 18:01 202 5 gusting 13 13.9
2018-Dec-11 17:47 210 6 gusting 13 13.3
2018-Dec-11 17:31 198 7 gusting 13 12.8
2018-Dec-11 17:17 126 6 gusting 12 12.8
2018-Dec-11 17:01 205 7 gusting 12 12.8
2018-Dec-11 16:46 240 7 gusting 13 12.2
2018-Dec-11 16:30 198 6 gusting 10 11.7
2018-Dec-11 16:16 218 6 gusting 10 11.7
2018-Dec-11 16:00 159 3 gusting 8 11.1
2018-Dec-11 15:45 200 4 gusting 10 10.6
2018-Dec-11 15:30 229 5 gusting 10 9.4
2018-Dec-11 15:16 228 5 gusting 10 8.9
2018-Dec-11 15:00 205 4 gusting 11 8.3
2018-Dec-11 14:45 229 3 gusting 8 6.7
2018-Dec-11 14:30 262 3 gusting 6 6.1
2018-Dec-11 14:15 233 1 gusting 5 5.6
2018-Dec-11 14:00 233 0 gusting 4 5.0
2018-Dec-11 13:45 255 2 gusting 5 4.4
2018-Dec-11 13:30 237 2 gusting 4 4.4
2018-Dec-11 13:15 254 0 gusting 2 4.4
2018-Dec-11 12:47 266 0 gusting 4 4.4
2018-Dec-11 12:31 230 4.4
2018-Dec-11 12:16 242 5.0
2018-Dec-11 12:01 268 1 gusting 2 5.0
2018-Dec-11 11:46 262 0 gusting 2 5.0
2018-Dec-11 11:31 245 0 gusting 2 5.0
2018-Dec-11 11:16 250 0 gusting 5 5.6
2018-Dec-11 11:01 246 1 gusting 5 5.6
2018-Dec-11 10:46 248 3 gusting 6 5.6
2018-Dec-11 10:31 240 2 gusting 5 5.6
2018-Dec-11 10:16 238 3 gusting 8 6.1
2018-Dec-11 10:01 236 4 gusting 8 6.1
2018-Dec-11 09:46 203 4 gusting 8 6.1
2018-Dec-11 09:33 251 4 gusting 7 6.1
2018-Dec-11 09:15 240 4 gusting 7 6.1
2018-Dec-11 09:01 227 4 gusting 8 6.1
2018-Dec-11 08:46 253 3 gusting 6 6.7
2018-Dec-11 08:31 248 2 gusting 6 6.7
2018-Dec-11 08:15 227 2 gusting 5 5.6
2018-Dec-11 08:00 179 1 gusting 5 6.7
2018-Dec-11 07:45 247 2 gusting 6 6.7
2018-Dec-11 07:31 220 6 gusting 9 6.1
2018-Dec-11 07:15 248 5 gusting 8 6.1
2018-Dec-11 07:01 257 4 gusting 7 6.1
2018-Dec-11 06:45 222 1 gusting 4 5.6
2018-Dec-11 06:30 224 0 gusting 4 6.1
2018-Dec-11 06:15 226 0 gusting 3 6.1
2018-Dec-11 06:00 232 3 gusting 6 6.7
2018-Dec-11 05:45 251 5 gusting 7 6.7
2018-Dec-11 05:30 257 5 gusting 8 6.7
2018-Dec-11 05:16 226 4 gusting 6 7.2
2018-Dec-11 05:01 243 3 gusting 6 7.2
2018-Dec-11 04:47 228 2 gusting 6 7.2
2018-Dec-11 04:31 220 3 gusting 6 7.2
2018-Dec-11 04:16 237 2 gusting 5 7.2
2018-Dec-11 04:01 214 0 gusting 2 7.2
2018-Dec-11 03:46 231 1 gusting 4 7.2
2018-Dec-11 03:32 193 0 gusting 3 7.2
2018-Dec-11 03:18 217 7.8
2018-Dec-11 03:01 220 0 gusting 2 7.8
2018-Dec-11 02:47 216 0 gusting 2 7.8
2018-Dec-11 02:32 208 0 gusting 2 7.8
2018-Dec-11 02:17 230 1 gusting 3 7.2
2018-Dec-11 02:01 203 8.3
2018-Dec-11 01:46 237 8.9
2018-Dec-11 01:31 223 8.9
2018-Dec-11 01:15 222 8.3
2018-Dec-11 01:01 030 8.3
2018-Dec-11 00:46 030 8.9
2018-Dec-11 00:30 029 8.9
2018-Dec-11 00:16 030 9.4
2018-Dec-11 00:01 048 9.4
2018-Dec-10 23:46 068 10.0
2018-Dec-10 23:31 055 10.6
2018-Dec-10 23:16 072 0 gusting 1 11.7
2018-Dec-10 23:02 115 13.9
2018-Dec-10 22:47 131 15.0
2018-Dec-10 22:31 141 13.9
2018-Dec-10 22:17 131 0 gusting 3 13.9
2018-Dec-10 22:00 110 0 gusting 3 13.9
2018-Dec-10 21:45 006 0 gusting 1 14.4
2018-Dec-10 21:31 073 1 gusting 3 13.9
2018-Dec-10 21:16 293 2 gusting 5 13.9
2018-Dec-10 21:01 264 0 gusting 2 14.4
2018-Dec-10 20:46 309 0 gusting 3 13.9
2018-Dec-10 20:31 344 0 gusting 4 13.3
2018-Dec-10 20:16 297 13.3
2018-Dec-10 20:00 355 0 gusting 4 12.8
2018-Dec-10 19:46 046 0 gusting 3 12.8
2018-Dec-10 19:31 321 1 gusting 3 12.2
2018-Dec-10 19:15 017 1 gusting 6 12.2
2018-Dec-10 19:00 300 1 gusting 6 11.7
2018-Dec-10 18:45 309 0 gusting 4 11.7
2018-Dec-10 18:30 347 1 gusting 5 11.1
2018-Dec-10 18:15 304 0 gusting 4 11.1
2018-Dec-10 18:00 300 0 gusting 5 10.6
2018-Dec-10 17:45 311 0 gusting 5 10.0
2018-Dec-10 17:30 304 1 gusting 6 9.4
2018-Dec-10 17:17 046 1 gusting 5 8.9
2018-Dec-10 17:01 323 1 gusting 5 8.9
2018-Dec-10 16:46 018 1 gusting 5 7.8
2018-Dec-10 16:32 023 1 gusting 6 7.2
2018-Dec-10 16:16 328 2 gusting 6 7.2
2018-Dec-10 16:01 004 2 gusting 6 6.7
2018-Dec-10 15:46 020 2 gusting 7 6.1
2018-Dec-10 15:31 330 3 gusting 7 5.6
2018-Dec-10 15:15 342 2 gusting 7 5.6
2018-Dec-10 15:01 359 3 gusting 6 5.0
2018-Dec-10 14:46 336 0 gusting 3 3.9
2018-Dec-10 14:30 324 0 gusting 4 2.8
2018-Dec-10 14:16 291 1.7
2018-Dec-10 14:00 255 1.1
2018-Dec-10 13:45 308 0.6
2018-Dec-10 13:30 345 -0.0
2018-Dec-10 13:15 299 -0.6
2018-Dec-10 13:00 236 -0.6
2018-Dec-10 12:45 269 -0.0
2018-Dec-10 12:16 236 0.6
2018-Dec-10 12:01 252 1.1
2018-Dec-10 11:46 264 1.1
2018-Dec-10 11:31 263 1.1
2018-Dec-10 11:16 276 1.7
2018-Dec-10 11:02 269 1.7
2018-Dec-10 10:48 280 1.1
2018-Dec-10 10:31 269 1.7
2018-Dec-10 10:16 294 1.7
2018-Dec-10 10:01 330 1.1
2018-Dec-10 09:46 333 1.1
2018-Dec-10 09:31 329 1.1
2018-Dec-10 09:16 317 1.7
2018-Dec-10 09:01 308 1.7
2018-Dec-10 08:46 291 1.7
2018-Dec-10 08:31 290 2.2
2018-Dec-10 08:16 302 0 gusting 1 2.2
2018-Dec-10 08:01 327 2.2
2018-Dec-10 07:46 326 0 gusting 4 2.8
2018-Dec-10 07:30 359 2 gusting 5 2.8
2018-Dec-10 07:15 349 2 gusting 5 2.8
2018-Dec-10 07:01 337 3 gusting 7 2.8
2018-Dec-10 06:46 337 1 gusting 6 2.8
2018-Dec-10 06:30 356 2 gusting 5 3.3
2018-Dec-10 06:15 333 1 gusting 6 3.3
2018-Dec-10 06:00 349 2 gusting 6 3.3
2018-Dec-10 05:45 335 2 gusting 4 3.3
2018-Dec-10 05:30 346 0 gusting 4 3.3
2018-Dec-10 05:15 016 0 gusting 4 3.3
2018-Dec-10 05:00 338 2 gusting 5 3.3
2018-Dec-10 04:45 331 1 gusting 3 3.3
2018-Dec-10 04:30 346 0 gusting 3 3.3
2018-Dec-10 04:15 342 1 gusting 4 3.3
2018-Dec-10 04:02 330 1 gusting 3 3.3
2018-Dec-10 03:46 344 1 gusting 4 3.3
2018-Dec-10 03:31 004 1 gusting 4 3.3
2018-Dec-10 03:16 330 2 gusting 4 3.3
2018-Dec-10 03:01 343 1 gusting 3 3.9
2018-Dec-10 02:47 344 1 gusting 3 3.9
2018-Dec-10 02:31 336 0 gusting 3 4.4
2018-Dec-10 02:16 334 1 gusting 4 4.4
2018-Dec-10 02:01 345 1 gusting 4 4.4